sensor_id;sensor_type;location;lat;lon;timestamp;P1;durP1;ratioP1;P2;durP2;ratioP2
61250;SDS011;47126;47.508;8.590;2023-06-04T00:02:17;21.95;;;10.50;;
61250;SDS011;47126;47.508;8.590;2023-06-04T00:04:43;19.65;;;9.90;;
61250;SDS011;47126;47.508;8.590;2023-06-04T00:07:09;20.10;;;9.90;;
61250;SDS011;47126;47.508;8.590;2023-06-04T00:09:35;17.70;;;9.15;;
61250;SDS011;47126;47.508;8.590;2023-06-04T00:12:01;15.05;;;9.00;;
61250;SDS011;47126;47.508;8.590;2023-06-04T00:14:28;15.50;;;9.00;;
61250;SDS011;47126;47.508;8.590;2023-06-04T00:16:53;15.73;;;8.88;;
61250;SDS011;47126;47.508;8.590;2023-06-04T00:19:20;15.27;;;9.18;;
61250;SDS011;47126;47.508;8.590;2023-06-04T00:21:46;16.73;;;9.23;;
61250;SDS011;47126;47.508;8.590;2023-06-04T00:24:12;15.68;;;9.48;;
61250;SDS011;47126;47.508;8.590;2023-06-04T00:26:38;14.05;;;8.73;;
61250;SDS011;47126;47.508;8.590;2023-06-04T00:29:04;17.52;;;8.88;;
61250;SDS011;47126;47.508;8.590;2023-06-04T00:31:30;19.15;;;10.23;;
61250;SDS011;47126;47.508;8.590;2023-06-04T00:33:56;17.08;;;8.88;;
61250;SDS011;47126;47.508;8.590;2023-06-04T00:36:22;17.73;;;9.82;;
61250;SDS011;47126;47.508;8.590;2023-06-04T00:38:48;22.42;;;10.13;;
61250;SDS011;47126;47.508;8.590;2023-06-04T00:41:14;16.17;;;8.90;;
61250;SDS011;47126;47.508;8.590;2023-06-04T00:43:41;20.70;;;10.00;;
61250;SDS011;47126;47.508;8.590;2023-06-04T00:46:10;18.08;;;9.32;;
61250;SDS011;47126;47.508;8.590;2023-06-04T00:48:43;22.02;;;9.35;;
61250;SDS011;47126;47.508;8.590;2023-06-04T00:51:09;17.23;;;9.88;;
61250;SDS011;47126;47.508;8.590;2023-06-04T00:53:35;15.82;;;9.63;;
61250;SDS011;47126;47.508;8.590;2023-06-04T00:56:01;17.35;;;10.35;;
61250;SDS011;47126;47.508;8.590;2023-06-04T00:58:30;17.50;;;10.38;;
61250;SDS011;47126;47.508;8.590;2023-06-04T01:00:56;20.55;;;11.32;;
61250;SDS011;47126;47.508;8.590;2023-06-04T01:03:22;18.55;;;10.57;;
61250;SDS011;47126;47.508;8.590;2023-06-04T01:08:20;17.95;;;10.52;;
61250;SDS011;47126;47.508;8.590;2023-06-04T01:10:55;18.92;;;9.63;;
61250;SDS011;47126;47.508;8.590;2023-06-04T01:13:22;15.05;;;8.52;;
61250;SDS011;47126;47.508;8.590;2023-06-04T01:15:48;17.05;;;8.52;;
61250;SDS011;47126;47.508;8.590;2023-06-04T01:18:15;16.33;;;8.45;;
61250;SDS011;47126;47.508;8.590;2023-06-04T01:20:52;14.98;;;8.10;;
61250;SDS011;47126;47.508;8.590;2023-06-04T01:25:53;16.55;;;8.82;;
61250;SDS011;47126;47.508;8.590;2023-06-04T01:28:22;15.25;;;8.75;;
61250;SDS011;47126;47.508;8.590;2023-06-04T01:30:51;16.13;;;8.32;;
61250;SDS011;47126;47.508;8.590;2023-06-04T01:33:18;17.38;;;8.50;;
61250;SDS011;47126;47.508;8.590;2023-06-04T01:35:45;14.35;;;8.32;;
61250;SDS011;47126;47.508;8.590;2023-06-04T01:38:12;15.32;;;8.60;;
61250;SDS011;47126;47.508;8.590;2023-06-04T01:40:38;16.70;;;8.68;;
61250;SDS011;47126;47.508;8.590;2023-06-04T01:43:04;19.15;;;9.70;;
61250;SDS011;47126;47.508;8.590;2023-06-04T01:45:30;19.45;;;9.10;;
61250;SDS011;47126;47.508;8.590;2023-06-04T01:47:56;18.27;;;10.32;;
61250;SDS011;47126;47.508;8.590;2023-06-04T01:50:22;16.27;;;10.35;;
61250;SDS011;47126;47.508;8.590;2023-06-04T01:52:49;16.95;;;9.63;;
61250;SDS011;47126;47.508;8.590;2023-06-04T01:55:15;15.90;;;9.50;;
61250;SDS011;47126;47.508;8.590;2023-06-04T01:57:42;15.77;;;10.13;;
61250;SDS011;47126;47.508;8.590;2023-06-04T02:00:12;17.37;;;9.87;;
61250;SDS011;47126;47.508;8.590;2023-06-04T02:02:43;18.27;;;9.55;;
61250;SDS011;47126;47.508;8.590;2023-06-04T02:05:09;19.13;;;10.57;;
61250;SDS011;47126;47.508;8.590;2023-06-04T02:07:36;15.77;;;9.65;;
61250;SDS011;47126;47.508;8.590;2023-06-04T02:10:04;15.40;;;9.20;;
61250;SDS011;47126;47.508;8.590;2023-06-04T02:12:30;16.27;;;9.32;;
61250;SDS011;47126;47.508;8.590;2023-06-04T02:14:57;16.15;;;9.25;;
61250;SDS011;47126;47.508;8.590;2023-06-04T02:17:23;19.08;;;9.10;;
61250;SDS011;47126;47.508;8.590;2023-06-04T02:19:50;17.48;;;9.10;;
61250;SDS011;47126;47.508;8.590;2023-06-04T02:22:16;21.00;;;10.05;;
61250;SDS011;47126;47.508;8.590;2023-06-04T02:24:43;21.08;;;10.07;;
61250;SDS011;47126;47.508;8.590;2023-06-04T02:27:09;18.38;;;9.95;;
61250;SDS011;47126;47.508;8.590;2023-06-04T02:29:35;15.70;;;9.75;;
61250;SDS011;47126;47.508;8.590;2023-06-04T02:32:02;18.55;;;9.35;;
61250;SDS011;47126;47.508;8.590;2023-06-04T02:34:28;16.75;;;9.38;;
61250;SDS011;47126;47.508;8.590;2023-06-04T02:36:54;17.85;;;8.90;;
61250;SDS011;47126;47.508;8.590;2023-06-04T02:39:21;15.95;;;9.13;;
61250;SDS011;47126;47.508;8.590;2023-06-04T02:41:47;14.30;;;8.35;;
61250;SDS011;47126;47.508;8.590;2023-06-04T02:44:13;13.50;;;7.85;;
61250;SDS011;47126;47.508;8.590;2023-06-04T02:46:39;15.27;;;8.65;;
61250;SDS011;47126;47.508;8.590;2023-06-04T02:49:05;15.63;;;8.10;;
61250;SDS011;47126;47.508;8.590;2023-06-04T02:51:31;18.25;;;9.20;;
61250;SDS011;47126;47.508;8.590;2023-06-04T02:53:57;15.00;;;7.97;;
61250;SDS011;47126;47.508;8.590;2023-06-04T02:56:24;15.98;;;8.98;;
61250;SDS011;47126;47.508;8.590;2023-06-04T02:58:54;23.90;;;8.45;;
61250;SDS011;47126;47.508;8.590;2023-06-04T03:01:23;18.73;;;9.73;;
61250;SDS011;47126;47.508;8.590;2023-06-04T03:03:50;14.35;;;8.40;;
61250;SDS011;47126;47.508;8.590;2023-06-04T03:06:16;18.38;;;8.63;;
61250;SDS011;47126;47.508;8.590;2023-06-04T03:08:45;14.27;;;8.68;;
61250;SDS011;47126;47.508;8.590;2023-06-04T03:11:11;16.60;;;8.65;;
61250;SDS011;47126;47.508;8.590;2023-06-04T03:13:37;19.58;;;8.45;;
61250;SDS011;47126;47.508;8.590;2023-06-04T03:16:03;15.10;;;8.35;;
61250;SDS011;47126;47.508;8.590;2023-06-04T03:21:01;13.55;;;8.00;;
61250;SDS011;47126;47.508;8.590;2023-06-04T03:23:27;17.45;;;8.27;;
61250;SDS011;47126;47.508;8.590;2023-06-04T03:25:53;13.50;;;8.18;;
61250;SDS011;47126;47.508;8.590;2023-06-04T03:28:19;16.23;;;8.73;;
61250;SDS011;47126;47.508;8.590;2023-06-04T03:30:46;13.00;;;8.23;;
61250;SDS011;47126;47.508;8.590;2023-06-04T03:33:12;14.25;;;8.60;;
61250;SDS011;47126;47.508;8.590;2023-06-04T03:35:40;17.98;;;8.88;;
61250;SDS011;47126;47.508;8.590;2023-06-04T03:38:06;14.10;;;8.02;;
61250;SDS011;47126;47.508;8.590;2023-06-04T03:40:32;15.25;;;8.80;;
61250;SDS011;47126;47.508;8.590;2023-06-04T03:42:59;16.60;;;8.50;;
61250;SDS011;47126;47.508;8.590;2023-06-04T03:45:25;17.08;;;9.23;;
61250;SDS011;47126;47.508;8.590;2023-06-04T03:47:51;15.95;;;10.30;;
61250;SDS011;47126;47.508;8.590;2023-06-04T03:50:18;17.42;;;9.10;;
61250;SDS011;47126;47.508;8.590;2023-06-04T03:52:50;18.42;;;9.10;;
61250;SDS011;47126;47.508;8.590;2023-06-04T03:55:16;17.83;;;9.63;;
61250;SDS011;47126;47.508;8.590;2023-06-04T03:57:42;17.15;;;9.10;;
61250;SDS011;47126;47.508;8.590;2023-06-04T04:00:08;16.02;;;8.25;;
61250;SDS011;47126;47.508;8.590;2023-06-04T04:02:37;13.38;;;8.23;;
61250;SDS011;47126;47.508;8.590;2023-06-04T04:05:03;13.30;;;8.18;;
61250;SDS011;47126;47.508;8.590;2023-06-04T04:07:29;15.63;;;7.38;;
61250;SDS011;47126;47.508;8.590;2023-06-04T04:09:55;17.83;;;8.57;;
61250;SDS011;47126;47.508;8.590;2023-06-04T04:12:22;15.02;;;8.35;;
61250;SDS011;47126;47.508;8.590;2023-06-04T04:14:48;15.50;;;9.27;;
61250;SDS011;47126;47.508;8.590;2023-06-04T04:17:14;15.35;;;8.95;;
61250;SDS011;47126;47.508;8.590;2023-06-04T04:19:40;15.98;;;8.55;;
61250;SDS011;47126;47.508;8.590;2023-06-04T04:22:06;13.95;;;8.43;;
61250;SDS011;47126;47.508;8.590;2023-06-04T04:24:34;13.73;;;8.57;;
61250;SDS011;47126;47.508;8.590;2023-06-04T04:27:04;19.45;;;9.15;;
61250;SDS011;47126;47.508;8.590;2023-06-04T04:29:30;16.77;;;8.82;;
61250;SDS011;47126;47.508;8.590;2023-06-04T04:32:01;15.70;;;8.85;;
61250;SDS011;47126;47.508;8.590;2023-06-04T04:34:49;15.43;;;9.27;;
61250;SDS011;47126;47.508;8.590;2023-06-04T04:37:16;14.57;;;8.80;;
61250;SDS011;47126;47.508;8.590;2023-06-04T04:39:46;15.23;;;9.20;;
61250;SDS011;47126;47.508;8.590;2023-06-04T04:42:12;16.63;;;9.15;;
61250;SDS011;47126;47.508;8.590;2023-06-04T04:44:38;17.20;;;9.07;;
61250;SDS011;47126;47.508;8.590;2023-06-04T04:47:04;17.45;;;9.05;;
61250;SDS011;47126;47.508;8.590;2023-06-04T04:49:30;18.92;;;8.65;;
61250;SDS011;47126;47.508;8.590;2023-06-04T04:51:59;15.18;;;8.32;;
61250;SDS011;47126;47.508;8.590;2023-06-04T04:54:25;13.90;;;7.80;;
61250;SDS011;47126;47.508;8.590;2023-06-04T04:56:51;16.40;;;8.30;;
61250;SDS011;47126;47.508;8.590;2023-06-04T04:59:17;13.10;;;7.90;;
61250;SDS011;47126;47.508;8.590;2023-06-04T05:01:43;14.43;;;8.35;;
61250;SDS011;47126;47.508;8.590;2023-06-04T05:04:09;17.77;;;8.50;;
61250;SDS011;47126;47.508;8.590;2023-06-04T05:06:36;15.75;;;8.18;;
61250;SDS011;47126;47.508;8.590;2023-06-04T05:09:02;13.23;;;7.85;;
61250;SDS011;47126;47.508;8.590;2023-06-04T05:11:28;12.68;;;8.10;;
61250;SDS011;47126;47.508;8.590;2023-06-04T05:13:55;13.18;;;8.15;;
61250;SDS011;47126;47.508;8.590;2023-06-04T05:16:21;13.80;;;8.65;;
61250;SDS011;47126;47.508;8.590;2023-06-04T05:18:47;17.50;;;8.98;;
61250;SDS011;47126;47.508;8.590;2023-06-04T05:21:16;13.27;;;8.00;;
61250;SDS011;47126;47.508;8.590;2023-06-04T05:23:42;18.75;;;8.35;;
61250;SDS011;47126;47.508;8.590;2023-06-04T05:26:13;17.63;;;7.63;;
61250;SDS011;47126;47.508;8.590;2023-06-04T05:28:39;15.57;;;7.53;;
61250;SDS011;47126;47.508;8.590;2023-06-04T05:31:08;16.73;;;7.30;;
61250;SDS011;47126;47.508;8.590;2023-06-04T05:33:34;15.50;;;6.88;;
61250;SDS011;47126;47.508;8.590;2023-06-04T05:36:01;11.65;;;7.22;;
61250;SDS011;47126;47.508;8.590;2023-06-04T05:38:27;14.70;;;8.77;;
61250;SDS011;47126;47.508;8.590;2023-06-04T05:40:56;13.65;;;7.22;;
61250;SDS011;47126;47.508;8.590;2023-06-04T05:43:22;13.43;;;7.45;;
61250;SDS011;47126;47.508;8.590;2023-06-04T05:45:48;16.13;;;6.93;;
61250;SDS011;47126;47.508;8.590;2023-06-04T05:48:15;13.77;;;7.85;;
61250;SDS011;47126;47.508;8.590;2023-06-04T05:50:41;13.70;;;7.03;;
61250;SDS011;47126;47.508;8.590;2023-06-04T05:53:07;17.10;;;7.07;;
61250;SDS011;47126;47.508;8.590;2023-06-04T05:55:33;11.68;;;7.40;;
61250;SDS011;47126;47.508;8.590;2023-06-04T05:57:59;12.60;;;7.35;;
61250;SDS011;47126;47.508;8.590;2023-06-04T06:00:25;13.65;;;7.43;;
61250;SDS011;47126;47.508;8.590;2023-06-04T06:02:51;15.88;;;7.55;;
61250;SDS011;47126;47.508;8.590;2023-06-04T06:05:18;11.77;;;7.50;;
61250;SDS011;47126;47.508;8.590;2023-06-04T06:07:44;15.80;;;7.85;;
61250;SDS011;47126;47.508;8.590;2023-06-04T06:10:10;11.25;;;6.85;;
61250;SDS011;47126;47.508;8.590;2023-06-04T06:12:37;13.50;;;7.10;;
61250;SDS011;47126;47.508;8.590;2023-06-04T06:15:03;12.13;;;7.00;;
61250;SDS011;47126;47.508;8.590;2023-06-04T06:17:30;13.52;;;6.80;;
61250;SDS011;47126;47.508;8.590;2023-06-04T06:19:56;11.88;;;6.80;;
61250;SDS011;47126;47.508;8.590;2023-06-04T06:22:22;11.85;;;6.53;;
61250;SDS011;47126;47.508;8.590;2023-06-04T06:24:48;11.45;;;6.72;;
61250;SDS011;47126;47.508;8.590;2023-06-04T06:27:14;12.68;;;7.47;;
61250;SDS011;47126;47.508;8.590;2023-06-04T06:29:41;12.70;;;6.82;;
61250;SDS011;47126;47.508;8.590;2023-06-04T06:32:07;15.32;;;7.47;;
61250;SDS011;47126;47.508;8.590;2023-06-04T06:34:33;14.35;;;6.50;;
61250;SDS011;47126;47.508;8.590;2023-06-04T06:36:59;12.57;;;7.43;;
61250;SDS011;47126;47.508;8.590;2023-06-04T06:39:25;12.70;;;7.30;;
61250;SDS011;47126;47.508;8.590;2023-06-04T06:41:51;16.13;;;7.32;;
61250;SDS011;47126;47.508;8.590;2023-06-04T06:44:18;13.15;;;6.60;;
61250;SDS011;47126;47.508;8.590;2023-06-04T06:46:44;11.82;;;7.22;;
61250;SDS011;47126;47.508;8.590;2023-06-04T06:49:10;15.23;;;9.07;;
61250;SDS011;47126;47.508;8.590;2023-06-04T06:51:36;13.70;;;6.97;;
61250;SDS011;47126;47.508;8.590;2023-06-04T06:54:03;14.60;;;7.60;;
61250;SDS011;47126;47.508;8.590;2023-06-04T06:56:29;14.70;;;8.00;;
61250;SDS011;47126;47.508;8.590;2023-06-04T06:58:55;12.57;;;7.32;;
61250;SDS011;47126;47.508;8.590;2023-06-04T07:01:21;15.90;;;7.45;;
61250;SDS011;47126;47.508;8.590;2023-06-04T07:03:47;12.88;;;7.10;;
61250;SDS011;47126;47.508;8.590;2023-06-04T07:06:13;14.52;;;7.18;;
61250;SDS011;47126;47.508;8.590;2023-06-04T07:08:39;13.27;;;6.97;;
61250;SDS011;47126;47.508;8.590;2023-06-04T07:11:07;17.33;;;7.78;;
61250;SDS011;47126;47.508;8.590;2023-06-04T07:13:36;13.63;;;7.50;;
61250;SDS011;47126;47.508;8.590;2023-06-04T07:16:02;15.30;;;7.30;;
61250;SDS011;47126;47.508;8.590;2023-06-04T07:18:29;12.55;;;6.72;;
61250;SDS011;47126;47.508;8.590;2023-06-04T07:20:55;12.30;;;7.20;;
61250;SDS011;47126;47.508;8.590;2023-06-04T07:23:21;11.80;;;7.25;;
61250;SDS011;47126;47.508;8.590;2023-06-04T07:25:47;13.68;;;7.28;;
61250;SDS011;47126;47.508;8.590;2023-06-04T07:28:13;14.05;;;7.95;;
61250;SDS011;47126;47.508;8.590;2023-06-04T07:30:40;15.57;;;7.63;;
61250;SDS011;47126;47.508;8.590;2023-06-04T07:33:06;11.30;;;6.95;;
61250;SDS011;47126;47.508;8.590;2023-06-04T07:35:32;11.93;;;7.28;;
61250;SDS011;47126;47.508;8.590;2023-06-04T07:37:58;14.52;;;7.82;;
61250;SDS011;47126;47.508;8.590;2023-06-04T07:40:24;17.13;;;7.35;;
61250;SDS011;47126;47.508;8.590;2023-06-04T07:42:50;14.57;;;7.70;;
61250;SDS011;47126;47.508;8.590;2023-06-04T07:45:16;12.55;;;7.00;;
61250;SDS011;47126;47.508;8.590;2023-06-04T07:47:43;13.52;;;7.95;;
61250;SDS011;47126;47.508;8.590;2023-06-04T07:50:09;13.52;;;7.45;;
61250;SDS011;47126;47.508;8.590;2023-06-04T07:52:35;16.70;;;7.90;;
61250;SDS011;47126;47.508;8.590;2023-06-04T07:55:01;16.08;;;7.35;;
61250;SDS011;47126;47.508;8.590;2023-06-04T07:57:28;12.63;;;7.13;;
61250;SDS011;47126;47.508;8.590;2023-06-04T07:59:54;11.20;;;7.28;;
61250;SDS011;47126;47.508;8.590;2023-06-04T08:02:21;17.83;;;8.15;;
61250;SDS011;47126;47.508;8.590;2023-06-04T08:04:48;17.38;;;7.47;;
61250;SDS011;47126;47.508;8.590;2023-06-04T08:07:14;12.40;;;7.03;;
61250;SDS011;47126;47.508;8.590;2023-06-04T08:09:40;12.70;;;7.20;;
61250;SDS011;47126;47.508;8.590;2023-06-04T08:12:06;12.95;;;6.90;;
61250;SDS011;47126;47.508;8.590;2023-06-04T08:14:32;13.13;;;7.03;;
61250;SDS011;47126;47.508;8.590;2023-06-04T08:16:58;13.43;;;7.60;;
61250;SDS011;47126;47.508;8.590;2023-06-04T08:19:24;13.35;;;7.40;;
61250;SDS011;47126;47.508;8.590;2023-06-04T08:21:50;14.38;;;7.53;;
61250;SDS011;47126;47.508;8.590;2023-06-04T08:24:16;15.05;;;7.85;;
61250;SDS011;47126;47.508;8.590;2023-06-04T08:26:42;13.15;;;7.80;;
61250;SDS011;47126;47.508;8.590;2023-06-04T08:29:08;21.08;;;7.53;;
61250;SDS011;47126;47.508;8.590;2023-06-04T08:31:34;18.73;;;7.85;;
61250;SDS011;47126;47.508;8.590;2023-06-04T08:34:00;14.35;;;8.00;;
61250;SDS011;47126;47.508;8.590;2023-06-04T08:36:30;12.90;;;7.75;;
61250;SDS011;47126;47.508;8.590;2023-06-04T08:38:57;16.27;;;7.38;;
61250;SDS011;47126;47.508;8.590;2023-06-04T08:41:24;15.25;;;7.50;;
61250;SDS011;47126;47.508;8.590;2023-06-04T08:43:56;12.13;;;7.28;;
61250;SDS011;47126;47.508;8.590;2023-06-04T08:46:23;14.05;;;8.02;;
61250;SDS011;47126;47.508;8.590;2023-06-04T08:48:49;15.88;;;7.32;;
61250;SDS011;47126;47.508;8.590;2023-06-04T08:51:16;15.55;;;8.05;;
61250;SDS011;47126;47.508;8.590;2023-06-04T08:53:42;11.65;;;7.30;;
61250;SDS011;47126;47.508;8.590;2023-06-04T08:56:12;15.52;;;7.35;;
61250;SDS011;47126;47.508;8.590;2023-06-04T08:58:39;15.85;;;7.75;;
61250;SDS011;47126;47.508;8.590;2023-06-04T09:01:06;13.50;;;7.45;;
61250;SDS011;47126;47.508;8.590;2023-06-04T09:03:33;11.88;;;7.30;;
61250;SDS011;47126;47.508;8.590;2023-06-04T09:06:00;12.45;;;7.63;;
61250;SDS011;47126;47.508;8.590;2023-06-04T09:08:27;16.23;;;7.38;;
61250;SDS011;47126;47.508;8.590;2023-06-04T09:10:57;16.80;;;7.65;;
61250;SDS011;47126;47.508;8.590;2023-06-04T09:13:25;12.18;;;7.38;;
61250;SDS011;47126;47.508;8.590;2023-06-04T09:16:02;16.40;;;7.07;;
61250;SDS011;47126;47.508;8.590;2023-06-04T09:18:29;13.43;;;7.72;;
61250;SDS011;47126;47.508;8.590;2023-06-04T09:23:27;14.18;;;7.68;;
61250;SDS011;47126;47.508;8.590;2023-06-04T09:25:53;13.07;;;7.10;;
61250;SDS011;47126;47.508;8.590;2023-06-04T09:28:20;12.45;;;8.07;;
61250;SDS011;47126;47.508;8.590;2023-06-04T09:30:52;16.58;;;7.53;;
61250;SDS011;47126;47.508;8.590;2023-06-04T09:33:18;15.73;;;7.55;;
61250;SDS011;47126;47.508;8.590;2023-06-04T09:35:58;16.35;;;8.35;;
61250;SDS011;47126;47.508;8.590;2023-06-04T09:38:34;11.60;;;7.30;;
61250;SDS011;47126;47.508;8.590;2023-06-04T09:41:01;15.35;;;6.72;;
61250;SDS011;47126;47.508;8.590;2023-06-04T09:43:29;13.60;;;7.35;;
61250;SDS011;47126;47.508;8.590;2023-06-04T09:45:55;13.98;;;7.28;;
61250;SDS011;47126;47.508;8.590;2023-06-04T09:48:22;14.90;;;7.07;;
61250;SDS011;47126;47.508;8.590;2023-06-04T09:50:48;20.45;;;7.28;;
61250;SDS011;47126;47.508;8.590;2023-06-04T09:53:18;10.98;;;6.25;;
61250;SDS011;47126;47.508;8.590;2023-06-04T09:56:00;13.10;;;7.15;;
61250;SDS011;47126;47.508;8.590;2023-06-04T09:58:27;13.77;;;7.53;;
61250;SDS011;47126;47.508;8.590;2023-06-04T10:00:57;12.05;;;6.47;;
61250;SDS011;47126;47.508;8.590;2023-06-04T10:03:23;39.35;;;7.32;;
61250;SDS011;47126;47.508;8.590;2023-06-04T10:05:51;13.07;;;6.97;;
61250;SDS011;47126;47.508;8.590;2023-06-04T10:08:18;18.88;;;6.90;;
61250;SDS011;47126;47.508;8.590;2023-06-04T10:10:45;12.65;;;6.75;;
61250;SDS011;47126;47.508;8.590;2023-06-04T10:13:17;10.70;;;6.25;;
61250;SDS011;47126;47.508;8.590;2023-06-04T10:15:43;12.50;;;6.35;;
61250;SDS011;47126;47.508;8.590;2023-06-04T10:18:10;12.85;;;6.95;;
61250;SDS011;47126;47.508;8.590;2023-06-04T10:20:36;10.88;;;6.60;;
61250;SDS011;47126;47.508;8.590;2023-06-04T10:23:02;14.27;;;6.75;;
61250;SDS011;47126;47.508;8.590;2023-06-04T10:25:29;12.38;;;6.93;;
61250;SDS011;47126;47.508;8.590;2023-06-04T10:27:55;10.73;;;6.60;;
61250;SDS011;47126;47.508;8.590;2023-06-04T10:30:22;11.75;;;6.32;;
61250;SDS011;47126;47.508;8.590;2023-06-04T10:32:48;13.95;;;6.82;;
61250;SDS011;47126;47.508;8.590;2023-06-04T10:35:14;9.35;;;6.10;;
61250;SDS011;47126;47.508;8.590;2023-06-04T10:37:40;15.02;;;8.30;;
61250;SDS011;47126;47.508;8.590;2023-06-04T10:40:08;19.42;;;6.78;;
61250;SDS011;47126;47.508;8.590;2023-06-04T10:42:37;12.55;;;6.82;;
61250;SDS011;47126;47.508;8.590;2023-06-04T10:45:04;11.60;;;6.95;;
61250;SDS011;47126;47.508;8.590;2023-06-04T10:47:30;11.82;;;6.50;;
61250;SDS011;47126;47.508;8.590;2023-06-04T10:50:09;13.32;;;6.55;;
61250;SDS011;47126;47.508;8.590;2023-06-04T10:52:35;11.10;;;6.35;;
61250;SDS011;47126;47.508;8.590;2023-06-04T10:55:05;12.82;;;7.03;;
61250;SDS011;47126;47.508;8.590;2023-06-04T10:59:58;11.75;;;6.38;;
61250;SDS011;47126;47.508;8.590;2023-06-04T11:02:25;11.35;;;6.45;;
61250;SDS011;47126;47.508;8.590;2023-06-04T11:05:04;12.23;;;6.20;;
61250;SDS011;47126;47.508;8.590;2023-06-04T11:07:50;9.77;;;5.35;;
61250;SDS011;47126;47.508;8.590;2023-06-04T11:10:16;9.75;;;5.82;;
61250;SDS011;47126;47.508;8.590;2023-06-04T11:12:46;8.52;;;5.20;;
61250;SDS011;47126;47.508;8.590;2023-06-04T11:15:13;10.95;;;5.65;;
61250;SDS011;47126;47.508;8.590;2023-06-04T11:18:40;9.48;;;5.38;;
61250;SDS011;47126;47.508;8.590;2023-06-04T11:20:35;9.32;;;5.78;;
61250;SDS011;47126;47.508;8.590;2023-06-04T11:23:01;10.15;;;6.03;;
61250;SDS011;47126;47.508;8.590;2023-06-04T11:25:28;14.23;;;5.30;;
61250;SDS011;47126;47.508;8.590;2023-06-04T11:27:56;11.70;;;5.38;;
61250;SDS011;47126;47.508;8.590;2023-06-04T11:30:23;12.05;;;5.93;;
61250;SDS011;47126;47.508;8.590;2023-06-04T11:32:49;10.20;;;5.30;;
61250;SDS011;47126;47.508;8.590;2023-06-04T11:35:15;11.07;;;5.60;;
61250;SDS011;47126;47.508;8.590;2023-06-04T11:37:41;10.07;;;5.10;;
61250;SDS011;47126;47.508;8.590;2023-06-04T11:40:18;7.25;;;4.80;;
61250;SDS011;47126;47.508;8.590;2023-06-04T11:42:46;8.05;;;4.95;;
61250;SDS011;47126;47.508;8.590;2023-06-04T11:45:12;10.80;;;5.65;;
61250;SDS011;47126;47.508;8.590;2023-06-04T11:47:39;9.60;;;5.28;;
61250;SDS011;47126;47.508;8.590;2023-06-04T11:50:06;7.88;;;4.75;;
61250;SDS011;47126;47.508;8.590;2023-06-04T11:52:33;8.98;;;4.63;;
61250;SDS011;47126;47.508;8.590;2023-06-04T11:54:59;10.85;;;4.95;;
61250;SDS011;47126;47.508;8.590;2023-06-04T11:57:25;9.68;;;5.03;;
61250;SDS011;47126;47.508;8.590;2023-06-04T11:59:51;10.35;;;4.65;;
61250;SDS011;47126;47.508;8.590;2023-06-04T12:02:18;12.02;;;5.10;;
61250;SDS011;47126;47.508;8.590;2023-06-04T12:04:44;6.75;;;4.70;;
61250;SDS011;47126;47.508;8.590;2023-06-04T12:07:10;13.80;;;4.88;;
61250;SDS011;47126;47.508;8.590;2023-06-04T12:09:36;9.55;;;4.88;;
61250;SDS011;47126;47.508;8.590;2023-06-04T12:12:04;11.00;;;4.88;;
61250;SDS011;47126;47.508;8.590;2023-06-04T12:14:31;9.43;;;4.55;;
61250;SDS011;47126;47.508;8.590;2023-06-04T12:16:57;14.70;;;4.82;;
61250;SDS011;47126;47.508;8.590;2023-06-04T12:19:24;7.18;;;4.35;;
61250;SDS011;47126;47.508;8.590;2023-06-04T12:24:30;12.73;;;4.88;;
61250;SDS011;47126;47.508;8.590;2023-06-04T12:27:08;8.30;;;4.38;;
61250;SDS011;47126;47.508;8.590;2023-06-04T12:29:34;12.10;;;4.32;;
61250;SDS011;47126;47.508;8.590;2023-06-04T12:32:08;10.70;;;4.75;;
61250;SDS011;47126;47.508;8.590;2023-06-04T12:34:36;11.43;;;4.13;;
61250;SDS011;47126;47.508;8.590;2023-06-04T12:37:02;8.35;;;4.35;;
61250;SDS011;47126;47.508;8.590;2023-06-04T12:39:30;10.07;;;5.10;;
61250;SDS011;47126;47.508;8.590;2023-06-04T12:41:56;9.02;;;4.32;;
61250;SDS011;47126;47.508;8.590;2023-06-04T12:44:22;11.50;;;5.22;;
61250;SDS011;47126;47.508;8.590;2023-06-04T12:46:50;8.80;;;4.72;;
61250;SDS011;47126;47.508;8.590;2023-06-04T12:49:16;8.43;;;4.80;;
61250;SDS011;47126;47.508;8.590;2023-06-04T12:51:42;10.23;;;4.93;;
61250;SDS011;47126;47.508;8.590;2023-06-04T12:54:09;8.38;;;4.47;;
61250;SDS011;47126;47.508;8.590;2023-06-04T12:56:35;8.00;;;4.85;;
61250;SDS011;47126;47.508;8.590;2023-06-04T12:59:02;9.55;;;4.70;;
61250;SDS011;47126;47.508;8.590;2023-06-04T13:01:28;9.73;;;4.57;;
61250;SDS011;47126;47.508;8.590;2023-06-04T13:03:54;10.65;;;4.80;;
61250;SDS011;47126;47.508;8.590;2023-06-04T13:06:20;10.18;;;4.80;;
61250;SDS011;47126;47.508;8.590;2023-06-04T13:08:46;10.20;;;4.68;;
61250;SDS011;47126;47.508;8.590;2023-06-04T13:11:12;10.85;;;4.47;;
61250;SDS011;47126;47.508;8.590;2023-06-04T13:13:39;10.93;;;4.93;;
61250;SDS011;47126;47.508;8.590;2023-06-04T13:16:05;9.63;;;4.45;;
61250;SDS011;47126;47.508;8.590;2023-06-04T13:18:31;12.98;;;4.90;;
61250;SDS011;47126;47.508;8.590;2023-06-04T13:20:57;7.55;;;5.00;;
61250;SDS011;47126;47.508;8.590;2023-06-04T13:23:23;7.22;;;4.40;;
61250;SDS011;47126;47.508;8.590;2023-06-04T13:25:49;7.43;;;4.00;;
61250;SDS011;47126;47.508;8.590;2023-06-04T13:28:15;8.55;;;4.60;;
61250;SDS011;47126;47.508;8.590;2023-06-04T13:30:42;8.07;;;4.03;;
61250;SDS011;47126;47.508;8.590;2023-06-04T13:33:08;10.63;;;4.80;;
61250;SDS011;47126;47.508;8.590;2023-06-04T13:35:35;10.98;;;4.78;;
61250;SDS011;47126;47.508;8.590;2023-06-04T13:38:04;6.65;;;4.32;;
61250;SDS011;47126;47.508;8.590;2023-06-04T13:42:57;9.43;;;4.20;;
61250;SDS011;47126;47.508;8.590;2023-06-04T13:45:23;9.32;;;4.88;;
61250;SDS011;47126;47.508;8.590;2023-06-04T13:47:49;12.88;;;4.63;;
61250;SDS011;47126;47.508;8.590;2023-06-04T13:50:15;10.00;;;5.00;;
61250;SDS011;47126;47.508;8.590;2023-06-04T13:52:41;9.25;;;4.82;;
61250;SDS011;47126;47.508;8.590;2023-06-04T13:55:07;10.98;;;4.80;;
61250;SDS011;47126;47.508;8.590;2023-06-04T13:57:33;11.02;;;5.00;;
61250;SDS011;47126;47.508;8.590;2023-06-04T13:59:59;9.85;;;4.88;;
61250;SDS011;47126;47.508;8.590;2023-06-04T14:02:25;6.93;;;4.07;;
61250;SDS011;47126;47.508;8.590;2023-06-04T14:04:52;16.35;;;5.25;;
61250;SDS011;47126;47.508;8.590;2023-06-04T14:07:19;9.00;;;4.70;;
61250;SDS011;47126;47.508;8.590;2023-06-04T14:09:45;12.02;;;4.60;;
61250;SDS011;47126;47.508;8.590;2023-06-04T14:12:11;9.93;;;4.72;;
61250;SDS011;47126;47.508;8.590;2023-06-04T14:14:42;11.15;;;4.55;;
61250;SDS011;47126;47.508;8.590;2023-06-04T14:17:08;9.52;;;4.57;;
61250;SDS011;47126;47.508;8.590;2023-06-04T14:19:34;10.77;;;5.28;;
61250;SDS011;47126;47.508;8.590;2023-06-04T14:22:01;10.57;;;5.38;;
61250;SDS011;47126;47.508;8.590;2023-06-04T14:24:27;9.40;;;4.88;;
61250;SDS011;47126;47.508;8.590;2023-06-04T14:26:55;8.40;;;4.35;;
61250;SDS011;47126;47.508;8.590;2023-06-04T14:29:21;19.88;;;5.05;;
61250;SDS011;47126;47.508;8.590;2023-06-04T14:31:47;9.10;;;5.45;;
61250;SDS011;47126;47.508;8.590;2023-06-04T14:34:14;9.27;;;4.70;;
61250;SDS011;47126;47.508;8.590;2023-06-04T14:36:40;9.23;;;4.47;;
61250;SDS011;47126;47.508;8.590;2023-06-04T14:39:06;7.70;;;4.35;;
61250;SDS011;47126;47.508;8.590;2023-06-04T14:41:32;8.27;;;4.78;;
61250;SDS011;47126;47.508;8.590;2023-06-04T14:43:58;9.80;;;4.78;;
61250;SDS011;47126;47.508;8.590;2023-06-04T14:46:24;8.48;;;4.30;;
61250;SDS011;47126;47.508;8.590;2023-06-04T14:48:50;7.25;;;4.78;;
61250;SDS011;47126;47.508;8.590;2023-06-04T14:51:16;15.35;;;4.93;;
61250;SDS011;47126;47.508;8.590;2023-06-04T14:53:42;7.63;;;4.20;;